Time;durP1;ratioP1;P1;durP2;ratioP2;P2;SDS_P1;SDS_P2;PMS_P1;PMS_P2;Temp;Humidity;BMP_temperature;BMP_pressure;BME280_temperature;BME280_humidity;BME280_pressure;Samples;Min_cycle;Max_cycle;Signal;HPM_P1;HPM_P2
2022/02/06 00:00:37;;;;;;;7.85;5.20;;;4.10;75.90;;;;;;5075283;28;20158;-59
2022/02/06 00:03:03;;;;;;;9.13;6.32;;;4.10;76.10;;;;;;5070247;28;20025;-59
2022/02/06 00:05:29;;;;;;;6.55;4.50;;;4.20;76.20;;;;;;5075120;28;20060;-58
2022/02/06 00:07:56;;;;;;;9.30;6.20;;;4.10;76.00;;;;;;5074924;28;20389;-59
2022/02/06 00:10:21;;;;;;;9.30;5.18;;;4.10;75.90;;;;;;5074917;28;20028;-59
2022/02/06 00:12:47;;;;;;;7.72;6.35;;;4.10;75.70;;;;;;5074655;28;20412;-59
2022/02/06 00:15:16;;;;;;;8.52;5.40;;;4.10;75.80;;;;;;5074012;28;20044;-59
2022/02/06 00:17:42;;;;;;;6.85;5.50;;;4.10;75.60;;;;;;5074707;28;20086;-59
2022/02/06 00:20:08;;;;;;;8.13;5.03;;;4.10;75.60;;;;;;5072159;28;20029;-59
2022/02/06 00:22:48;;;;;;;7.13;6.43;;;4.10;75.40;;;;;;5074285;28;20032;-59
2022/02/06 00:30:50;;;;;;;7.80;5.50;;;4.10;75.30;;;;;;5062459;28;20599;-59
2022/02/06 00:39:00;;;;;;;;;;;4.00;75.10;;;;;;5088727;28;20040;-59
2022/02/06 00:41:21;;;;;;;6.35;3.38;;;3.90;75.00;;;;;;5074208;28;19914;-59
2022/02/06 00:43:48;;;;;;;6.53;5.07;;;3.90;75.20;;;;;;5066031;28;20439;-59
2022/02/06 00:46:16;;;;;;;5.70;4.28;;;4.00;75.30;;;;;;5068165;28;20056;-59
2022/02/06 00:48:47;;;;;;;8.25;5.55;;;3.90;75.70;;;;;;5073751;28;20116;-59
2022/02/06 00:51:25;;;;;;;4.65;3.80;;;4.00;75.10;;;;;;5074104;28;20036;-59
2022/02/06 00:53:51;;;;;;;8.15;5.60;;;4.00;74.90;;;;;;5074447;28;20107;-58
2022/02/06 00:56:17;;;;;;;6.00;4.82;;;4.10;74.90;;;;;;5073952;28;20025;-59
2022/02/06 00:58:43;;;;;;;7.63;5.57;;;4.10;74.60;;;;;;5073943;28;20038;-60
2022/02/06 01:01:09;;;;;;;6.95;4.15;;;4.20;74.40;;;;;;5073733;28;20025;-59
2022/02/06 01:03:35;;;;;;;7.38;4.32;;;4.10;74.30;;;;;;5073905;28;20028;-59
2022/02/06 01:06:00;;;;;;;6.53;5.25;;;4.10;74.30;;;;;;5087322;28;20028;-59
2022/02/06 01:08:26;;;;;;;5.20;3.80;;;4.20;74.40;;;;;;5055760;28;20039;-59
2022/02/06 01:10:52;;;;;;;6.03;3.70;;;4.10;74.30;;;;;;5053878;28;20064;-59
2022/02/06 01:15:52;;;;;;;8.93;6.07;;;4.20;74.50;;;;;;5056209;28;20457;-59
2022/02/06 01:18:33;;;;;;;7.10;4.20;;;4.30;74.30;;;;;;5053669;28;20033;-59
2022/02/06 01:21:06;;;;;;;6.43;4.10;;;4.20;74.10;;;;;;5069569;28;20025;-59
2022/02/06 01:23:50;;;;;;;7.28;5.55;;;4.20;74.20;;;;;;5067534;28;20032;-58
2022/02/06 01:27:07;;;;;;;7.57;4.97;;;4.20;74.10;;;;;;5075487;28;20033;-59
2022/02/06 01:29:27;;;;;;;13.02;8.57;;;4.20;73.90;;;;;;5062306;28;20048;-59
2022/02/06 01:32:05;;;;;;;14.02;10.07;;;4.30;73.90;;;;;;5071084;28;20032;-59
2022/02/06 01:39:55;;;;;;;8.25;4.72;;;4.30;73.60;;;;;;5073106;28;20023;-59
2022/02/06 01:42:35;;;;;;;8.43;5.10;;;4.30;73.70;;;;;;5060221;28;20078;-59
2022/02/06 02:02:39;;;;;;;8.80;5.32;;;4.50;73.10;;;;;;5059726;28;20111;-59
2022/02/06 02:18:12;;;;;;;8.15;5.57;;;4.70;72.60;;;;;;5061190;28;20043;-58
2022/02/06 02:20:16;;;;;;;6.22;4.53;;;4.70;72.30;;;;;;5054148;28;20048;-59
2022/02/06 02:25:22;;;;;;;7.55;5.97;;;4.70;72.40;;;;;;5072598;28;20016;-59
2022/02/06 02:42:59;;;;;;;7.68;4.25;;;4.80;72.20;;;;;;5072686;28;20391;-59
2022/02/06 02:47:10;;;;;;;7.07;4.75;;;4.80;71.80;;;;;;5072567;28;20133;-59
2022/02/06 02:49:36;;;;;;;7.07;3.97;;;4.80;71.80;;;;;;5072168;28;20025;-59
2022/02/06 02:52:08;;;;;;;6.07;4.10;;;4.70;71.60;;;;;;5072553;28;20027;-59
2022/02/06 02:54:36;;;;;;;7.90;4.95;;;4.70;72.00;;;;;;5072527;28;20025;-59
2022/02/06 02:57:15;;;;;;;8.18;5.05;;;4.70;72.00;;;;;;5074684;28;20020;-59
2022/02/06 03:00:22;;;;;;;6.10;4.68;;;4.70;72.00;;;;;;5065581;28;20130;-59
2022/02/06 03:02:33;;;;;;;6.50;3.85;;;4.60;71.90;;;;;;5064934;28;20051;-59
2022/02/06 03:05:01;;;;;;;5.63;3.65;;;4.60;72.10;;;;;;5082168;28;20034;-59
2022/02/06 03:07:27;;;;;;;5.60;4.25;;;4.60;72.30;;;;;;5075431;28;20472;-59
2022/02/06 03:09:53;;;;;;;6.82;4.78;;;4.70;72.30;;;;;;5083207;28;20483;-59
2022/02/06 03:12:24;;;;;;;6.63;5.05;;;4.70;72.10;;;;;;5065431;28;20056;-59
2022/02/06 03:14:57;;;;;;;;;;;4.80;71.90;;;;;;5065310;28;20028;-59
2022/02/06 03:17:34;;;;;;;8.93;4.93;;;4.70;71.70;;;;;;5067284;28;19916;-59
2022/02/06 03:20:07;;;;;;;8.60;5.13;;;4.80;71.70;;;;;;5066160;28;20135;-59
2022/02/06 03:22:49;;;;;;;6.50;5.25;;;4.80;71.40;;;;;;5061420;28;20036;-59
2022/02/06 03:25:19;;;;;;;5.35;3.67;;;4.80;71.40;;;;;;5061821;28;20041;-59
2022/02/06 03:27:49;;;;;;;7.03;5.60;;;4.80;71.60;;;;;;5074932;28;20033;-59
2022/02/06 03:30:15;;;;;;;9.48;4.68;;;4.80;71.70;;;;;;5083917;28;20115;-59
2022/02/06 03:32:41;;;;;;;7.65;5.60;;;4.80;71.40;;;;;;5080390;28;20038;-59
2022/02/06 03:35:08;;;;;;;7.07;5.55;;;4.80;71.60;;;;;;5069671;28;20037;-59
2022/02/06 03:37:33;;;;;;;4.75;3.95;;;4.80;71.40;;;;;;5069542;28;20506;-59
2022/02/06 03:40:02;;;;;;;6.65;5.30;;;4.70;71.50;;;;;;5073002;28;20024;-59
2022/02/06 03:42:42;;;;;;;7.47;3.78;;;4.70;71.70;;;;;;5066488;28;20512;-59
2022/02/06 03:45:10;;;;;;;8.85;4.95;;;4.60;71.70;;;;;;5066289;28;20036;-59
2022/02/06 03:50:33;;;;;;;6.35;5.00;;;4.60;72.00;;;;;;5000475;28;20397;-59
2022/02/06 03:52:59;;;;;;;7.00;3.97;;;4.60;72.10;;;;;;5066091;28;20384;-59
2022/02/06 03:55:25;;;;;;;7.07;5.53;;;4.60;72.00;;;;;;5065956;28;20031;-59
2022/02/06 03:57:52;;;;;;;6.00;3.85;;;4.60;72.20;;;;;;5067284;28;20091;-59
2022/02/06 04:00:20;;;;;;;4.75;3.47;;;4.60;72.00;;;;;;5079780;28;20025;-59
2022/02/06 04:02:46;;;;;;;6.60;5.20;;;4.60;72.10;;;;;;5074287;28;20021;-59
2022/02/06 04:05:17;;;;;;;7.00;5.43;;;4.70;72.30;;;;;;5073715;28;20035;-59
2022/02/06 04:07:43;;;;;;;3.67;3.00;;;4.70;72.10;;;;;;5082620;28;20039;-59
2022/02/06 04:10:13;;;;;;;6.25;5.15;;;4.60;71.90;;;;;;5079708;28;20024;-59
2022/02/06 04:12:42;;;;;;;5.70;5.10;;;4.70;72.20;;;;;;5064122;28;20036;-59
2022/02/06 04:15:14;;;;;;;7.72;4.55;;;4.70;72.20;;;;;;5068681;28;20021;-58
2022/02/06 04:17:48;;;;;;;7.30;4.10;;;4.70;72.30;;;;;;5068939;28;20025;-59
2022/02/06 04:20:13;;;;;;;6.15;4.10;;;4.60;72.40;;;;;;5067755;28;20024;-59
2022/02/06 04:22:39;;;;;;;5.50;3.83;;;4.60;72.50;;;;;;5080497;28;20024;-59
2022/02/06 04:25:05;;;;;;;9.80;5.65;;;4.60;72.40;;;;;;5070099;28;20036;-59
2022/02/06 04:27:31;;;;;;;6.45;5.05;;;4.70;72.30;;;;;;5059961;28;20036;-58
2022/02/06 04:29:57;;;;;;;7.97;5.90;;;4.70;72.20;;;;;;5073996;28;20392;-59
2022/02/06 04:32:25;;;;;;;6.80;5.40;;;4.70;72.10;;;;;;5074645;28;20388;-59
2022/02/06 04:34:52;;;;;;;7.15;5.65;;;4.70;72.10;;;;;;5086071;28;20403;-59
2022/02/06 04:43:03;;;;;;;5.40;4.07;;;4.70;72.30;;;;;;5081468;28;20438;-59
2022/02/06 04:45:59;;;;;;;7.43;5.15;;;4.60;72.40;;;;;;5073630;28;20437;-59
2022/02/06 04:51:26;;;;;;;6.53;4.53;;;4.60;72.30;;;;;;5062392;28;20031;-59
2022/02/06 05:15:33;;;;;;;6.90;5.05;;;4.70;72.70;;;;;;5062963;28;20027;-59
2022/02/06 05:18:27;;;;;;;7.65;4.60;;;4.70;72.70;;;;;;5072220;28;20036;-59
2022/02/06 05:31:13;;;;;;;10.48;7.00;;;4.80;72.30;;;;;;5053061;28;20516;-59
2022/02/06 05:33:39;;;;;;;9.27;6.30;;;4.90;72.40;;;;;;5055459;28;20036;-58
2022/02/06 05:36:09;;;;;;;7.13;4.32;;;4.90;72.20;;;;;;5073105;28;20051;-59
2022/02/06 05:38:34;;;;;;;8.82;6.80;;;4.90;72.00;;;;;;5070562;28;20032;-59
2022/02/06 05:41:00;;;;;;;10.18;7.22;;;5.00;72.00;;;;;;5053219;28;20032;-59
2022/02/06 05:43:26;;;;;;;7.55;5.22;;;5.00;71.90;;;;;;5053346;28;20021;-59
2022/02/06 05:45:51;;;;;;;10.90;7.53;;;5.00;71.80;;;;;;5053264;28;20025;-59
2022/02/06 05:48:17;;;;;;;8.05;5.30;;;5.00;71.90;;;;;;5053033;28;20788;-59
2022/02/06 05:50:43;;;;;;;11.70;7.28;;;5.00;71.90;;;;;;5063492;28;20103;-59
2022/02/06 05:53:12;;;;;;;9.60;7.88;;;5.00;71.90;;;;;;5072816;28;20408;-59
2022/02/06 05:55:38;;;;;;;7.72;5.30;;;5.10;71.70;;;;;;5072914;28;20028;-59
2022/02/06 05:58:05;;;;;;;9.35;6.13;;;5.10;71.60;;;;;;5076381;28;20482;-59
2022/02/06 06:00:30;;;;;;;11.38;6.50;;;5.10;71.70;;;;;;5079934;28;20034;-59
2022/02/06 06:02:56;;;;;;;13.77;5.88;;;5.10;71.60;;;;;;5072841;28;20435;-59
2022/02/06 06:05:23;;;;;;;9.45;6.55;;;5.10;71.70;;;;;;5072715;28;20036;-59
2022/02/06 06:07:51;;;;;;;11.25;5.50;;;5.10;71.60;;;;;;5072680;28;20104;-59
2022/02/06 06:10:17;;;;;;;10.35;6.25;;;5.10;71.40;;;;;;5071217;28;20116;-59
2022/02/06 06:12:43;;;;;;;8.38;5.53;;;5.10;71.50;;;;;;5065116;28;20544;-59
2022/02/06 06:15:09;;;;;;;9.88;6.22;;;5.10;71.50;;;;;;5052842;28;20491;-59
2022/02/06 06:17:37;;;;;;;7.30;4.95;;;5.10;71.50;;;;;;5056890;28;20025;-59
2022/02/06 06:20:04;;;;;;;5.55;4.60;;;5.10;71.50;;;;;;5059703;28;20028;-59
2022/02/06 06:22:30;;;;;;;7.35;5.15;;;5.10;71.40;;;;;;5061716;28;20108;-59
2022/02/06 06:24:58;;;;;;;9.65;6.53;;;5.10;71.50;;;;;;5063483;28;20102;-59
2022/02/06 06:27:24;;;;;;;10.95;5.80;;;5.20;71.50;;;;;;5072339;28;20153;-59
2022/02/06 06:29:50;;;;;;;8.30;5.22;;;5.20;71.50;;;;;;5069499;28;20528;-59
2022/02/06 06:32:16;;;;;;;8.27;6.15;;;5.20;71.60;;;;;;5052691;28;20095;-59
2022/02/06 06:34:41;;;;;;;8.60;6.13;;;5.30;71.60;;;;;;5068300;28;20037;-58
2022/02/06 06:37:07;;;;;;;7.15;4.93;;;5.30;71.40;;;;;;5072451;28;20027;-59
2022/02/06 06:39:44;;;;;;;6.22;4.75;;;5.30;71.40;;;;;;5057124;28;20419;-58
2022/02/06 06:42:11;;;;;;;7.80;5.90;;;5.30;71.50;;;;;;5061814;28;20028;-59
2022/02/06 06:44:38;;;;;;;6.07;4.68;;;5.30;71.40;;;;;;5063836;28;20166;-59
2022/02/06 06:47:05;;;;;;;8.27;5.82;;;5.30;71.40;;;;;;5072214;28;20032;-59
2022/02/06 06:49:31;;;;;;;9.60;6.15;;;5.40;71.60;;;;;;5060756;28;20048;-59
2022/02/06 06:51:58;;;;;;;8.40;5.03;;;5.40;71.50;;;;;;5081223;28;20059;-59
2022/02/06 06:54:23;;;;;;;9.05;5.68;;;5.40;71.60;;;;;;5063452;28;20053;-59
2022/02/06 06:57:00;;;;;;;7.15;5.63;;;5.40;71.50;;;;;;5071811;28;20447;-59
2022/02/06 07:04:57;;;;;;;7.88;4.93;;;5.40;71.40;;;;;;5072449;28;20023;-59
2022/02/06 07:07:23;;;;;;;6.97;4.35;;;5.40;71.20;;;;;;5072565;28;20037;-59
2022/02/06 07:09:49;;;;;;;6.65;4.90;;;5.40;71.30;;;;;;5071905;28;20025;-59
2022/02/06 07:12:15;;;;;;;7.20;4.50;;;5.40;71.40;;;;;;5072178;28;20380;-59
2022/02/06 07:14:42;;;;;;;7.75;4.88;;;5.40;71.30;;;;;;5073658;28;20020;-59
2022/02/06 07:17:08;;;;;;;8.50;5.13;;;5.50;71.50;;;;;;5068840;28;20040;-59
2022/02/06 07:19:34;;;;;;;8.75;5.45;;;5.50;71.40;;;;;;5072131;28;20480;-59
2022/02/06 07:22:00;;;;;;;8.75;4.85;;;5.50;71.40;;;;;;5071319;28;20028;-59
2022/02/06 07:24:27;;;;;;;9.40;5.03;;;5.60;71.20;;;;;;5065845;28;20538;-59
2022/02/06 07:26:58;;;;;;;11.73;6.47;;;5.60;71.90;;;;;;5071473;28;20082;-59
2022/02/06 07:29:24;;;;;;;7.88;4.78;;;5.60;71.10;;;;;;5072330;28;20032;-59
2022/02/06 07:31:51;;;;;;;8.52;5.63;;;5.70;71.30;;;;;;5072337;28;20028;-59
2022/02/06 07:34:17;;;;;;;7.68;5.70;;;5.70;71.20;;;;;;5057607;28;20049;-59
2022/02/06 07:36:43;;;;;;;8.30;5.15;;;5.70;71.00;;;;;;5070263;28;20032;-59
2022/02/06 07:39:08;;;;;;;6.45;4.25;;;5.80;71.00;;;;;;5069942;28;20033;-59
2022/02/06 07:41:34;;;;;;;8.73;5.82;;;5.80;71.00;;;;;;5070113;28;20108;-59
2022/02/06 07:44:00;;;;;;;7.60;5.38;;;5.80;70.70;;;;;;5070547;28;20024;-59
2022/02/06 07:46:31;;;;;;;6.75;5.07;;;5.80;70.70;;;;;;5069889;28;20025;-59
2022/02/06 07:49:03;;;;;;;9.75;5.07;;;5.80;70.80;;;;;;5069300;28;20041;-58
2022/02/06 07:51:29;;;;;;;8.00;5.97;;;5.90;70.80;;;;;;5054534;28;20033;-59
2022/02/06 07:53:54;;;;;;;6.00;4.28;;;5.90;70.70;;;;;;5072662;28;20089;-59
2022/02/06 07:56:20;;;;;;;10.23;6.18;;;5.90;70.50;;;;;;5075146;28;20099;-59
2022/02/06 07:58:46;;;;;;;7.35;4.65;;;5.90;70.40;;;;;;5075495;28;20104;-59
2022/02/06 08:01:11;;;;;;;10.02;5.65;;;5.90;70.30;;;;;;5067448;28;20096;-59
2022/02/06 08:03:37;;;;;;;6.05;4.93;;;5.90;70.40;;;;;;5069625;28;20486;-59
2022/02/06 08:06:03;;;;;;;7.43;5.07;;;5.90;70.50;;;;;;5063663;28;20396;-59
2022/02/06 08:08:28;;;;;;;9.50;4.88;;;5.90;70.60;;;;;;5069249;28;20060;-59
2022/02/06 08:10:59;;;;;;;10.05;6.45;;;6.00;70.50;;;;;;5061493;28;20036;-59
2022/02/06 08:13:38;;;;;;;7.72;5.68;;;6.10;70.40;;;;;;5066161;28;20159;-59
2022/02/06 08:16:05;;;;;;;9.40;5.47;;;6.10;70.20;;;;;;5068883;28;20166;-59
2022/02/06 08:18:30;;;;;;;7.07;5.50;;;6.10;70.10;;;;;;5072089;28;20421;-58
2022/02/06 08:20:56;;;;;;;8.65;5.32;;;6.10;70.20;;;;;;5073215;28;20052;-59
2022/02/06 08:23:22;;;;;;;7.35;4.53;;;6.10;70.20;;;;;;5074109;28;20389;-59
2022/02/06 08:25:48;;;;;;;7.25;5.13;;;6.20;70.10;;;;;;5074197;28;20499;-59
2022/02/06 08:28:15;;;;;;;7.85;5.72;;;6.20;70.10;;;;;;5073745;28;20422;-59
2022/02/06 08:30:42;;;;;;;8.82;5.18;;;6.30;70.00;;;;;;5067492;28;20025;-59
2022/02/06 08:33:07;;;;;;;6.80;4.97;;;6.30;69.60;;;;;;5073254;28;20393;-59
2022/02/06 08:35:33;;;;;;;6.50;5.07;;;6.30;69.60;;;;;;5065202;28;20035;-59
2022/02/06 08:37:59;;;;;;;8.38;6.40;;;6.40;69.70;;;;;;5062522;28;20025;-59
2022/02/06 08:40:25;;;;;;;8.20;5.57;;;6.40;69.70;;;;;;5071095;28;20037;-59
2022/02/06 08:42:50;;;;;;;11.00;6.82;;;6.40;69.50;;;;;;5063330;28;20021;-59
2022/02/06 08:45:17;;;;;;;10.05;6.28;;;6.50;69.60;;;;;;5064391;28;20458;-58
2022/02/06 08:47:44;;;;;;;7.97;5.50;;;6.50;69.30;;;;;;5062990;28;20041;-59
2022/02/06 08:50:11;;;;;;;11.05;7.55;;;6.50;69.30;;;;;;5072905;28;20070;-59
2022/02/06 08:52:37;;;;;;;7.85;6.30;;;6.60;69.10;;;;;;5073534;28;20020;-59
2022/02/06 08:55:06;;;;;;;11.68;6.68;;;6.70;69.00;;;;;;5073902;28;20031;-59
2022/02/06 08:57:32;;;;;;;11.65;7.07;;;6.70;69.00;;;;;;5072709;28;20389;-59
2022/02/06 08:59:58;;;;;;;9.38;6.97;;;6.80;69.20;;;;;;5066955;28;20024;-57
2022/02/06 09:02:25;;;;;;;7.95;5.50;;;6.80;68.80;;;;;;5055718;28;20032;-59
2022/02/06 09:04:51;;;;;;;8.02;6.38;;;6.90;68.60;;;;;;5073384;28;20020;-59
2022/02/06 09:07:19;;;;;;;7.80;5.75;;;6.90;68.30;;;;;;5070120;28;20479;-59
2022/02/06 09:09:51;;;;;;;8.07;6.65;;;6.90;68.90;;;;;;5069636;28;20024;-59
2022/02/06 09:12:17;;;;;;;9.85;6.57;;;7.00;67.80;;;;;;5068685;28;20349;-59
2022/02/06 09:14:43;;;;;;;8.43;6.75;;;7.00;67.80;;;;;;5053296;28;20108;-59
2022/02/06 09:17:09;;;;;;;8.80;6.85;;;7.00;67.70;;;;;;5055831;28;20105;-59
2022/02/06 09:19:37;;;;;;;10.77;6.38;;;7.10;67.70;;;;;;5059812;28;20036;-59
2022/02/06 09:22:03;;;;;;;9.63;7.35;;;7.20;67.90;;;;;;5073656;28;20127;-59
2022/02/06 09:24:29;;;;;;;10.80;7.78;;;7.20;67.50;;;;;;5073139;28;20458;-59
2022/02/06 09:26:56;;;;;;;10.77;8.02;;;7.30;67.10;;;;;;5073240;28;20024;-59
2022/02/06 09:29:22;;;;;;;10.27;7.38;;;7.40;67.00;;;;;;5073249;28;20052;-59
2022/02/06 09:31:50;;;;;;;11.20;7.35;;;7.40;66.90;;;;;;5061054;28;20052;-59
2022/02/06 09:36:43;;;;;;;8.10;5.78;;;7.60;66.70;;;;;;5073124;28;20456;-59
2022/02/06 09:39:10;;;;;;;10.18;7.38;;;7.60;66.60;;;;;;5059795;28;20040;-57
2022/02/06 09:41:45;;;;;;;9.40;7.20;;;7.70;66.40;;;;;;5072854;28;20086;-58
2022/02/06 09:44:13;;;;;;;10.13;6.65;;;7.80;66.10;;;;;;5072756;28;20021;-59
2022/02/06 09:46:41;;;;;;;9.68;7.38;;;7.80;65.80;;;;;;5072520;28;20035;-59
2022/02/06 09:49:07;;;;;;;9.48;7.68;;;7.90;65.60;;;;;;5072436;28;20531;-59
2022/02/06 09:51:33;;;;;;;10.00;8.23;;;7.90;65.40;;;;;;5072879;28;20029;-59
2022/02/06 09:54:00;;;;;;;12.57;7.82;;;8.00;65.30;;;;;;5072943;28;20027;-59
2022/02/06 09:56:28;;;;;;;11.15;8.25;;;8.10;65.10;;;;;;5073071;28;20044;-58
2022/02/06 09:59:01;;;;;;;9.00;7.25;;;8.10;65.10;;;;;;5072881;28;20051;-57
2022/02/06 10:01:29;;;;;;;10.82;8.38;;;8.20;64.70;;;;;;5073056;28;20606;-59
2022/02/06 10:04:20;;;;;;;10.02;7.28;;;8.20;64.70;;;;;;5067712;28;20384;-59
2022/02/06 10:06:55;;;;;;;7.75;6.75;;;8.20;64.70;;;;;;5072467;28;20025;-59
2022/02/06 10:09:37;;;;;;;8.65;7.07;;;8.20;64.30;;;;;;5072202;28;20020;-57
2022/02/06 10:12:05;;;;;;;8.65;6.75;;;8.20;63.90;;;;;;5071958;28;20115;-59
2022/02/06 10:14:31;;;;;;;9.32;5.75;;;8.20;64.10;;;;;;5080491;28;20020;-59
2022/02/06 10:16:57;;;;;;;8.55;6.75;;;8.20;63.90;;;;;;5071330;28;20031;-60
2022/02/06 10:19:23;;;;;;;9.30;6.10;;;8.20;63.70;;;;;;5073749;28;20036;-60
2022/02/06 10:21:49;;;;;;;9.38;6.63;;;8.10;63.90;;;;;;5059585;28;20107;-59
2022/02/06 10:24:31;;;;;;;10.23;7.07;;;8.10;64.00;;;;;;5072304;28;20035;-59
2022/02/06 10:29:43;;;;;;;11.43;6.93;;;8.10;63.70;;;;;;5072358;28;20044;-60
2022/02/06 10:32:16;;;;;;;7.55;5.97;;;8.10;63.60;;;;;;5062476;28;20468;-57
2022/02/06 10:34:41;;;;;;;8.40;6.05;;;8.10;63.50;;;;;;5077263;28;20048;-59
2022/02/06 10:37:10;;;;;;;10.82;6.57;;;8.10;63.30;;;;;;5069475;28;20024;-59
2022/02/06 10:40:05;;;;;;;9.70;7.15;;;8.10;63.10;;;;;;5078885;28;20368;-59
2022/02/06 10:42:33;;;;;;;10.40;6.78;;;8.10;63.20;;;;;;5061672;28;20088;-60
2022/02/06 10:45:19;;;;;;;8.98;6.22;;;8.00;63.20;;;;;;5078468;28;20023;-59
2022/02/06 10:47:49;;;;;;;8.13;6.50;;;8.00;63.00;;;;;;5064077;28;20538;-59
2022/02/06 10:50:25;;;;;;;10.52;7.43;;;8.00;63.20;;;;;;5085649;28;20024;-59
2022/02/06 10:52:50;;;;;;;11.18;6.78;;;8.00;63.10;;;;;;5072111;28;20044;-59
2022/02/06 10:55:18;;;;;;;9.32;7.05;;;8.00;63.20;;;;;;5069784;28;20052;-59
2022/02/06 10:57:58;;;;;;;8.55;6.68;;;8.00;63.00;;;;;;5065661;28;20439;-59
2022/02/06 11:00:33;;;;;;;8.82;6.80;;;8.10;62.90;;;;;;5080482;28;20020;-59
2022/02/06 11:03:04;;;;;;;9.35;5.63;;;8.10;62.90;;;;;;5067753;28;20086;-59
2022/02/06 11:05:49;;;;;;;7.90;6.03;;;8.10;62.80;;;;;;5064972;28;20048;-59
2022/02/06 11:08:29;;;;;;;11.38;7.40;;;8.10;62.70;;;;;;5080617;28;20324;-59
2022/02/06 11:11:00;;;;;;;8.68;6.72;;;8.10;62.80;;;;;;5065500;28;20039;-59
2022/02/06 11:13:28;;;;;;;9.48;6.50;;;8.20;62.80;;;;;;5045352;28;20031;-59
2022/02/06 11:15:54;;;;;;;9.00;6.35;;;8.20;62.70;;;;;;5057741;28;20389;-59
2022/02/06 11:18:25;;;;;;;9.05;6.53;;;8.20;62.70;;;;;;5077622;28;20186;-59
2022/02/06 11:20:58;;;;;;;7.82;6.28;;;8.20;62.50;;;;;;5078553;28;20028;-58
2022/02/06 11:23:36;;;;;;;8.63;7.25;;;8.20;62.40;;;;;;5072637;28;20028;-59
2022/02/06 11:26:02;;;;;;;8.32;6.00;;;8.20;62.40;;;;;;5081681;28;20036;-59
2022/02/06 11:28:29;;;;;;;9.82;6.57;;;8.20;62.20;;;;;;5078964;28;20366;-58
2022/02/06 11:30:55;;;;;;;7.20;5.57;;;8.20;62.20;;;;;;5078796;28;20020;-60
2022/02/06 11:33:22;;;;;;;9.77;5.95;;;8.20;62.00;;;;;;5060352;28;20029;-59
2022/02/06 11:35:56;;;;;;;10.57;6.22;;;8.20;61.70;;;;;;5075125;28;20135;-59
2022/02/06 11:44:30;;;;;;;12.50;5.55;;;8.10;61.80;;;;;;5066608;28;20123;-59
2022/02/06 11:47:10;;;;;;;9.57;6.03;;;8.10;61.50;;;;;;5066259;28;20037;-59
2022/02/06 11:49:40;;;;;;;10.80;5.87;;;8.00;61.70;;;;;;5066691;28;20028;-59
2022/02/06 11:52:07;;;;;;;9.07;6.53;;;7.90;61.60;;;;;;5061088;28;20344;-59
2022/02/06 11:54:35;;;;;;;8.68;6.78;;;7.90;61.60;;;;;;5070818;28;20491;-59
2022/02/06 11:57:16;;;;;;;9.25;6.18;;;7.90;61.40;;;;;;5061767;28;20116;-59
2022/02/06 12:00:08;;;;;;;9.35;6.63;;;8.00;61.30;;;;;;5069158;28;20099;-59
2022/02/06 12:02:35;;;;;;;9.60;6.07;;;8.00;61.30;;;;;;5064312;28;20013;-59
2022/02/06 12:05:29;;;;;;;9.30;6.50;;;7.90;61.00;;;;;;5067322;28;20043;-59
2022/02/06 12:08:09;;;;;;;7.68;5.22;;;8.00;60.90;;;;;;5066361;28;20032;-60
2022/02/06 12:10:35;;;;;;;8.43;6.07;;;8.00;60.90;;;;;;5067440;28;20067;-59
2022/02/06 12:13:31;;;;;;;10.23;6.65;;;8.00;60.60;;;;;;5064394;28;20023;-59
2022/02/06 12:16:00;;;;;;;7.47;5.50;;;8.00;60.30;;;;;;5067588;28;20014;-60
2022/02/06 12:18:35;;;;;;;7.78;5.70;;;8.00;60.10;;;;;;5067934;28;20028;-60
2022/02/06 12:21:19;;;;;;;8.15;5.15;;;8.00;60.10;;;;;;5064969;28;20164;-59
2022/02/06 12:23:57;;;;;;;14.27;6.47;;;7.90;60.10;;;;;;5070820;28;20122;-58
2022/02/06 12:26:27;;;;;;;10.20;5.47;;;7.90;59.70;;;;;;5067629;28;20059;-59
2022/02/06 12:28:54;;;;;;;8.30;6.38;;;7.90;59.70;;;;;;5066020;28;20024;-59
2022/02/06 12:31:29;;;;;;;8.95;5.40;;;7.90;59.70;;;;;;5068080;28;20376;-59
2022/02/06 12:36:53;;;;;;;10.80;5.85;;;7.90;59.40;;;;;;5061290;28;20041;-59
2022/02/06 12:37:27;;;;;;;6.43;4.47;;;7.90;59.20;;;;;;5066380;28;20033;-59
2022/02/06 12:39:56;;;;;;;7.57;5.13;;;7.90;59.40;;;;;;5060868;28;20029;-59
2022/02/06 12:42:31;;;;;;;8.77;5.05;;;7.90;59.30;;;;;;5064539;28;20590;-59
2022/02/06 12:44:58;;;;;;;6.15;4.72;;;8.00;59.00;;;;;;5063047;28;20032;-59
2022/02/06 12:47:26;;;;;;;6.32;5.13;;;7.90;58.80;;;;;;5061700;28;20064;-60
2022/02/06 12:49:53;;;;;;;6.68;4.57;;;7.90;58.50;;;;;;5066843;28;20021;-59
2022/02/06 12:52:19;;;;;;;9.88;4.32;;;7.80;58.50;;;;;;5062808;28;20021;-59
2022/02/06 12:54:44;;;;;;;6.30;4.55;;;7.80;58.40;;;;;;5067649;28;20024;-59
2022/02/06 12:57:10;;;;;;;6.72;4.60;;;7.70;58.50;;;;;;5067048;28;20021;-59
2022/02/06 12:59:39;;;;;;;8.23;5.10;;;7.70;58.60;;;;;;5052655;28;20027;-58
2022/02/06 13:02:07;;;;;;;7.60;4.95;;;7.60;58.50;;;;;;5066072;28;20029;-59
2022/02/06 13:04:40;;;;;;;6.40;4.13;;;7.50;58.60;;;;;;5068646;28;20029;-59
2022/02/06 13:07:07;;;;;;;6.82;4.72;;;7.40;58.80;;;;;;5071834;28;20107;-59
2022/02/06 13:09:40;;;;;;;7.05;4.63;;;7.40;58.80;;;;;;5071939;28;20392;-59
2022/02/06 13:12:27;;;;;;;6.35;4.32;;;7.30;58.50;;;;;;5074450;28;20023;-60
2022/02/06 13:33:22;;;;;;;5.72;4.07;;;7.10;58.10;;;;;;5073074;28;20527;-59
2022/02/06 13:36:00;;;;;;;5.68;3.70;;;7.10;57.90;;;;;;5073008;28;20106;-59
2022/02/06 13:38:32;;;;;;;6.68;3.85;;;7.10;57.70;;;;;;5063067;28;20063;-59
2022/02/06 13:41:00;;;;;;;6.45;3.45;;;7.00;57.60;;;;;;5070571;28;20032;-59
2022/02/06 13:43:27;;;;;;;3.88;3.08;;;7.00;57.40;;;;;;5073097;28;20024;-59
2022/02/06 13:45:56;;;;;;;5.43;3.90;;;7.00;57.30;;;;;;5073089;28;20094;-59
2022/02/06 13:48:24;;;;;;;7.72;3.65;;;7.00;57.10;;;;;;5062378;28;20025;-59
2022/02/06 13:50:57;;;;;;;6.13;3.50;;;7.10;56.90;;;;;;5065332;28;20035;-60
2022/02/06 13:53:25;;;;;;;5.45;3.50;;;7.00;57.00;;;;;;5064251;28;20024;-59
2022/02/06 13:55:56;;;;;;;6.53;3.53;;;7.00;56.90;;;;;;5082326;28;20017;-59
2022/02/06 13:58:24;;;;;;;5.38;4.40;;;7.00;57.10;;;;;;5052953;28;20036;-59
2022/02/06 14:01:02;;;;;;;5.68;3.85;;;7.00;57.00;;;;;;5052608;28;20029;-59
2022/02/06 14:03:52;;;;;;;6.10;3.38;;;7.00;56.70;;;;;;5065205;28;20021;-59
2022/02/06 14:06:33;;;;;;;6.00;4.35;;;7.00;57.00;;;;;;5072567;28;20028;-59
2022/02/06 14:09:07;;;;;;;8.43;4.63;;;7.00;57.10;;;;;;5055073;28;20032;-59
2022/02/06 14:11:34;;;;;;;8.15;5.07;;;6.90;57.10;;;;;;5064605;28;20084;-59
2022/02/06 14:14:19;;;;;;;8.18;5.30;;;7.00;57.20;;;;;;5070779;28;20107;-59
2022/02/06 14:16:47;;;;;;;7.03;4.82;;;7.00;57.10;;;;;;5075671;28;20028;-59
2022/02/06 14:19:15;;;;;;;7.15;4.90;;;7.00;57.20;;;;;;5058670;28;20028;-59
2022/02/06 14:21:46;;;;;;;9.00;5.10;;;7.00;57.30;;;;;;5072691;28;20429;-59
2022/02/06 14:24:12;;;;;;;;;;;7.00;57.40;;;;;;5076034;28;20035;-59
2022/02/06 14:27:04;;;;;;;12.32;5.45;;;6.90;57.40;;;;;;5072625;28;19905;-59
2022/02/06 14:29:31;;;;;;;6.28;4.05;;;6.90;57.50;;;;;;5082030;28;20105;-59
2022/02/06 14:32:14;;;;;;;8.20;5.40;;;6.90;57.70;;;;;;5052603;28;20464;-59
2022/02/06 14:34:54;;;;;;;10.70;5.22;;;6.90;57.50;;;;;;5065216;28;20032;-59
2022/02/06 14:37:22;;;;;;;8.57;4.65;;;6.90;57.80;;;;;;5071174;28;20052;-59
2022/02/06 14:40:25;;;;;;;7.22;4.40;;;6.90;57.70;;;;;;5071820;28;20043;-58
2022/02/06 14:42:53;;;;;;;6.47;4.05;;;6.90;57.90;;;;;;5065603;28;20054;-60
2022/02/06 14:45:19;;;;;;;7.25;4.97;;;6.90;58.10;;;;;;5072235;28;20102;-59
2022/02/06 14:47:47;;;;;;;6.57;4.00;;;6.90;58.20;;;;;;5064441;28;20124;-59
2022/02/06 14:50:17;;;;;;;7.35;4.78;;;6.90;58.30;;;;;;5068258;28;20029;-59
2022/02/06 14:52:44;;;;;;;7.00;4.30;;;6.90;58.40;;;;;;5059798;28;20039;-59
2022/02/06 14:55:10;;;;;;;6.68;4.32;;;6.90;58.50;;;;;;5071941;28;20017;-59
2022/02/06 14:57:36;;;;;;;6.78;4.47;;;6.80;58.60;;;;;;5071962;28;20029;-59
2022/02/06 15:00:07;;;;;;;9.27;4.90;;;6.80;58.70;;;;;;5072361;28;20031;-59
2022/02/06 15:02:33;;;;;;;5.95;4.05;;;6.80;58.90;;;;;;5074849;28;20035;-59
2022/02/06 15:04:59;;;;;;;6.47;4.10;;;6.70;59.00;;;;;;5075989;28;20480;-58
2022/02/06 15:07:26;;;;;;;6.68;4.45;;;6.70;59.20;;;;;;5083189;28;20031;-59
2022/02/06 15:09:52;;;;;;;11.02;5.43;;;6.70;59.30;;;;;;5050219;28;20032;-59
2022/02/06 15:12:18;;;;;;;6.45;4.57;;;6.70;59.50;;;;;;5061954;28;20020;-59
2022/02/06 15:14:44;;;;;;;7.47;4.88;;;6.70;59.70;;;;;;5075434;28;20457;-59
2022/02/06 15:17:11;;;;;;;6.78;5.05;;;6.60;59.70;;;;;;5071580;28;20025;-59
2022/02/06 15:19:37;;;;;;;9.50;4.97;;;6.60;59.70;;;;;;5057822;28;20031;-59
2022/02/06 15:22:03;;;;;;;7.97;5.80;;;6.60;59.90;;;;;;5075651;28;20081;-59
2022/02/06 15:24:29;;;;;;;10.30;5.22;;;6.60;60.10;;;;;;5075610;28;20028;-59
2022/02/06 15:26:55;;;;;;;7.82;5.53;;;6.50;60.30;;;;;;5075575;28;20029;-59
2022/02/06 15:29:21;;;;;;;6.80;4.40;;;6.50;60.40;;;;;;5064949;28;20067;-59
2022/02/06 15:31:47;;;;;;;6.05;4.85;;;6.50;60.50;;;;;;5064635;28;20025;-59
2022/02/06 15:34:13;;;;;;;8.65;5.10;;;6.40;60.50;;;;;;5075313;28;20113;-59
2022/02/06 15:36:40;;;;;;;7.68;4.80;;;6.40;60.70;;;;;;5075338;28;20028;-59